createdAt,value
2022-09-22T00:01:18.107Z,10.85
2022-09-22T00:03:50.848Z,12.70
2022-09-22T00:06:29.399Z,11.15
2022-09-22T00:09:00.646Z,11.60
2022-09-22T00:11:40.006Z,11.82
2022-09-22T00:14:11.606Z,12.60
2022-09-22T00:16:47.861Z,12.45
2022-09-22T00:19:22.568Z,11.57
2022-09-22T00:21:49.852Z,12.35
2022-09-22T00:24:18.670Z,10.60
2022-09-22T00:26:45.526Z,11.57
2022-09-22T00:29:12.729Z,11.65
2022-09-22T00:31:41.722Z,14.48
2022-09-22T00:34:14.275Z,9.80
2022-09-22T00:36:41.361Z,10.65
2022-09-22T00:39:08.198Z,11.52
2022-09-22T00:41:40.494Z,11.55
2022-09-22T00:44:31.612Z,10.45
2022-09-22T00:47:04.079Z,11.88
2022-09-22T00:49:34.137Z,10.77
2022-09-22T00:52:01.409Z,10.18
2022-09-22T00:54:28.266Z,12.10
2022-09-22T00:57:08.675Z,11.80
2022-09-22T00:59:36.095Z,10.68
2022-09-22T01:02:03.482Z,10.80
2022-09-22T01:04:30.158Z,10.38
2022-09-22T01:06:58.447Z,12.10
2022-09-22T01:09:26.407Z,10.90
2022-09-22T01:11:53.012Z,10.02
2022-09-22T01:14:48.823Z,11.55
2022-09-22T01:17:34.492Z,10.30
2022-09-22T01:20:16.088Z,9.27
2022-09-22T01:22:58.646Z,9.63
2022-09-22T01:28:19.891Z,9.30
2022-09-22T01:31:06.477Z,9.00
2022-09-22T01:33:46.903Z,9.43
2022-09-22T01:36:29.202Z,10.13
2022-09-22T01:39:21.857Z,8.98
2022-09-22T01:44:27.277Z,7.70
2022-09-22T01:47:05.426Z,9.43
2022-09-22T01:49:35.245Z,8.10
2022-09-22T01:52:27.223Z,9.80
2022-09-22T01:55:16.601Z,9.77
2022-09-22T01:57:56.462Z,8.30
2022-09-22T02:00:26.727Z,10.90
2022-09-22T02:03:01.102Z,10.77
2022-09-22T02:05:42.084Z,8.45
2022-09-22T02:08:15.117Z,8.60
2022-09-22T02:10:44.386Z,10.20
2022-09-22T02:13:11.515Z,9.07
2022-09-22T02:15:57.101Z,11.63
2022-09-22T02:18:29.619Z,11.05
2022-09-22T02:20:57.436Z,10.10
2022-09-22T02:23:24.805Z,10.82
2022-09-22T02:25:53.467Z,10.57
2022-09-22T02:28:22.378Z,9.43
2022-09-22T02:31:17.491Z,10.20
2022-09-22T02:33:40.554Z,11.05
2022-09-22T02:36:38.644Z,11.48
2022-09-22T02:39:11.387Z,10.82
2022-09-22T02:42:10.220Z,10.95
2022-09-22T02:44:47.966Z,10.70
2022-09-22T02:47:43.452Z,11.93
2022-09-22T02:50:13.819Z,10.35
2022-09-22T02:52:40.987Z,11.00
2022-09-22T02:55:09.541Z,12.18
2022-09-22T02:57:36.219Z,10.68
2022-09-22T03:00:05.389Z,10.55
2022-09-22T03:02:32.351Z,11.80
2022-09-22T03:04:59.022Z,12.32
2022-09-22T03:07:26.441Z,12.73
2022-09-22T03:09:53.071Z,11.80
2022-09-22T03:12:19.696Z,14.87
2022-09-22T03:14:46.575Z,12.43
2022-09-22T03:17:13.187Z,13.07
2022-09-22T03:19:39.827Z,16.27
2022-09-22T03:22:06.891Z,13.98
2022-09-22T03:24:33.595Z,14.85
2022-09-22T03:27:00.207Z,13.35
2022-09-22T03:29:27.082Z,15.05
2022-09-22T03:31:53.740Z,14.57
2022-09-22T03:34:20.343Z,19.70
2022-09-22T03:36:47.432Z,17.17
2022-09-22T03:39:14.008Z,17.65
2022-09-22T03:41:41.120Z,15.80
2022-09-22T03:44:08.067Z,16.30
2022-09-22T03:46:34.754Z,17.98
2022-09-22T03:49:03.228Z,20.58
2022-09-22T03:51:30.962Z,21.35
2022-09-22T03:53:57.611Z,21.15
2022-09-22T03:56:24.327Z,20.05
2022-09-22T03:58:51.266Z,21.62
2022-09-22T04:01:18.081Z,20.30
2022-09-22T04:03:45.020Z,19.73
2022-09-22T04:06:11.699Z,18.08
2022-09-22T04:08:38.755Z,20.15
2022-09-22T04:11:06.245Z,20.08
2022-09-22T04:13:32.990Z,18.67
2022-09-22T04:15:59.751Z,16.10
2022-09-22T04:18:26.815Z,17.02
2022-09-22T04:20:58.152Z,20.33
2022-09-22T04:23:26.014Z,18.98
2022-09-22T04:25:53.560Z,19.67
2022-09-22T04:28:20.226Z,17.55
2022-09-22T04:30:47.669Z,20.58
2022-09-22T04:33:14.811Z,20.12
2022-09-22T04:35:42.007Z,17.60
2022-09-22T04:38:10.170Z,16.62
2022-09-22T04:40:37.652Z,17.40
2022-09-22T04:43:04.376Z,15.98
2022-09-22T04:45:33.139Z,16.45
2022-09-22T04:48:02.152Z,14.57
2022-09-22T04:50:28.921Z,15.35
2022-09-22T04:52:57.244Z,13.95
2022-09-22T04:55:25.200Z,14.07
2022-09-22T04:57:55.483Z,13.15
2022-09-22T05:00:26.210Z,14.70
2022-09-22T05:02:53.795Z,16.37
2022-09-22T05:05:21.206Z,13.57
2022-09-22T05:07:54.151Z,15.90
2022-09-22T05:10:25.153Z,17.25
2022-09-22T05:12:53.528Z,14.32
2022-09-22T05:15:21.782Z,14.27
2022-09-22T05:17:50.724Z,12.55
2022-09-22T05:20:18.302Z,13.95
2022-09-22T05:22:45.160Z,12.93
2022-09-22T05:25:17.826Z,13.52
2022-09-22T05:27:46.677Z,11.73
2022-09-22T05:30:14.036Z,11.90
2022-09-22T05:32:48.659Z,14.15
2022-09-22T05:35:18.212Z,13.25
2022-09-22T05:37:47.197Z,12.35
2022-09-22T05:40:15.236Z,14.73
2022-09-22T05:42:47.334Z,13.82
2022-09-22T05:45:14.968Z,14.75
2022-09-22T05:47:42.405Z,15.43
2022-09-22T05:50:12.231Z,13.90
2022-09-22T05:52:38.956Z,15.65
2022-09-22T05:55:07.134Z,16.42
2022-09-22T05:57:33.839Z,15.75
2022-09-22T06:00:00.614Z,18.12
2022-09-22T06:02:27.701Z,19.08
2022-09-22T06:04:54.683Z,17.70
2022-09-22T06:07:22.576Z,18.67
2022-09-22T06:09:50.008Z,16.65
2022-09-22T06:12:17.779Z,15.20
2022-09-22T06:14:44.465Z,18.27
2022-09-22T06:17:12.479Z,17.35
2022-09-22T06:19:40.772Z,15.85
2022-09-22T06:22:08.753Z,18.05
2022-09-22T06:24:35.454Z,15.88
2022-09-22T06:27:02.454Z,17.37
2022-09-22T06:29:29.185Z,15.52
2022-09-22T06:31:55.886Z,15.63
2022-09-22T06:34:23.931Z,17.15
2022-09-22T06:36:50.652Z,17.25
2022-09-22T06:39:17.318Z,17.33
2022-09-22T06:41:44.945Z,18.92
2022-09-22T06:44:12.710Z,17.98
2022-09-22T06:46:39.453Z,16.02
2022-09-22T06:49:06.347Z,15.02
2022-09-22T06:51:35.596Z,13.93
2022-09-22T06:54:04.303Z,16.90
2022-09-22T06:56:37.965Z,14.10
2022-09-22T06:59:11.189Z,14.90
2022-09-22T07:01:40.082Z,15.75
2022-09-22T07:04:07.703Z,13.20
2022-09-22T07:06:35.859Z,15.38
2022-09-22T07:09:04.847Z,14.18
2022-09-22T07:11:32.761Z,12.77
2022-09-22T07:14:03.128Z,12.15
2022-09-22T07:16:30.334Z,10.70
2022-09-22T07:18:58.510Z,10.95
2022-09-22T07:21:32.923Z,10.38
2022-09-22T07:23:59.996Z,10.98
2022-09-22T07:26:30.950Z,10.90
2022-09-22T07:29:00.007Z,11.50
2022-09-22T07:31:29.699Z,9.93
2022-09-22T07:34:00.175Z,10.55
2022-09-22T07:36:30.047Z,9.13
2022-09-22T07:39:03.280Z,9.60
2022-09-22T07:41:32.144Z,8.98
2022-09-22T07:44:19.569Z,9.55
2022-09-22T07:46:47.077Z,9.18
2022-09-22T07:49:19.421Z,12.10
2022-09-22T07:51:46.485Z,9.68
2022-09-22T07:54:13.142Z,12.35
2022-09-22T07:56:44.243Z,9.35
2022-09-22T07:59:14.060Z,10.20
2022-09-22T08:01:47.687Z,10.27
2022-09-22T08:04:22.736Z,9.52
2022-09-22T08:06:53.550Z,11.27
2022-09-22T08:09:20.702Z,8.97
2022-09-22T08:11:48.841Z,9.80
2022-09-22T08:14:17.451Z,10.80
2022-09-22T08:16:45.923Z,9.73
2022-09-22T08:19:14.079Z,9.32
2022-09-22T08:21:48.822Z,8.73
2022-09-22T08:24:22.457Z,10.50
2022-09-22T08:26:51.448Z,8.68
2022-09-22T08:29:18.620Z,7.20
2022-09-22T08:31:47.455Z,8.32
2022-09-22T08:34:16.665Z,8.55
2022-09-22T08:36:48.820Z,8.38
2022-09-22T08:42:18.873Z,8.23
2022-09-22T08:44:49.242Z,6.80
2022-09-22T08:47:40.809Z,7.05
2022-09-22T08:50:41.321Z,5.85
2022-09-22T08:53:12.136Z,6.72
2022-09-22T08:55:43.178Z,5.53
2022-09-22T08:58:32.259Z,5.07
2022-09-22T09:01:14.985Z,5.30
2022-09-22T09:03:55.049Z,4.65
2022-09-22T09:06:52.992Z,4.70
2022-09-22T09:09:41.485Z,4.50
2022-09-22T09:12:47.450Z,5.60
2022-09-22T09:15:29.412Z,8.38
2022-09-22T09:18:01.208Z,5.35
2022-09-22T09:20:40.525Z,6.40
2022-09-22T09:23:19.346Z,5.50
2022-09-22T09:25:55.200Z,5.85
2022-09-22T09:28:32.037Z,5.10
2022-09-22T09:31:16.703Z,6.15
2022-09-22T09:33:46.824Z,5.97
2022-09-22T09:36:17.653Z,5.87
2022-09-22T09:38:49.639Z,4.35
2022-09-22T09:41:34.231Z,5.22
2022-09-22T09:44:03.763Z,4.93
2022-09-22T09:46:43.276Z,4.53
2022-09-22T09:49:21.128Z,4.32
2022-09-22T09:51:52.525Z,4.12
2022-09-22T09:54:20.483Z,4.62
2022-09-22T09:57:05.579Z,4.65
2022-09-22T09:59:52.590Z,4.22
2022-09-22T10:02:25.360Z,4.57
2022-09-22T10:05:05.780Z,4.80
2022-09-22T10:07:47.916Z,4.72
2022-09-22T10:10:30.064Z,5.30
2022-09-22T10:13:06.021Z,9.88
2022-09-22T10:15:35.874Z,5.05
2022-09-22T10:18:04.042Z,5.30
2022-09-22T10:20:33.984Z,4.70
2022-09-22T10:23:21.748Z,5.32
2022-09-22T10:25:50.591Z,4.80
2022-09-22T10:28:21.963Z,4.93
2022-09-22T10:31:00.456Z,10.43
2022-09-22T10:33:27.411Z,6.20
2022-09-22T10:36:06.449Z,5.50
2022-09-22T10:41:17.999Z,6.53
2022-09-22T10:44:34.980Z,5.37
2022-09-22T10:47:32.290Z,6.70
2022-09-22T10:50:22.512Z,7.20
2022-09-22T10:53:12.588Z,6.25
2022-09-22T10:55:55.899Z,6.10
2022-09-22T10:58:34.734Z,6.50
2022-09-22T11:01:20.595Z,6.37
2022-09-22T11:04:06.738Z,10.25
2022-09-22T11:07:07.430Z,6.87
2022-09-22T11:09:59.621Z,7.18
2022-09-22T11:12:32.491Z,6.05
2022-09-22T11:15:18.040Z,5.82
2022-09-22T11:18:13.900Z,5.70
2022-09-22T11:20:47.318Z,8.85
2022-09-22T11:23:17.287Z,5.10
2022-09-22T11:26:01.887Z,6.87
2022-09-22T11:29:07.545Z,6.85
2022-09-22T11:31:48.556Z,6.75
2022-09-22T11:34:27.825Z,7.03
2022-09-22T11:37:25.598Z,6.12
2022-09-22T11:39:58.718Z,6.93
2022-09-22T11:42:43.291Z,6.28
2022-09-22T11:45:20.703Z,5.70
2022-09-22T11:48:25.951Z,5.47
2022-09-22T11:50:58.995Z,5.62
2022-09-22T11:53:44.155Z,5.47
2022-09-22T11:56:33.374Z,6.60
2022-09-22T11:59:13.690Z,5.28
2022-09-22T12:01:41.805Z,6.03
2022-09-22T12:04:21.922Z,5.57
2022-09-22T12:06:52.899Z,5.40
2022-09-22T12:09:43.860Z,4.93
2022-09-22T12:12:17.210Z,6.28
2022-09-22T12:14:48.090Z,4.07
2022-09-22T12:17:40.930Z,3.87
2022-09-22T12:20:28.928Z,5.60
2022-09-22T12:23:19.720Z,4.97
2022-09-22T12:26:01.037Z,3.40
2022-09-22T12:28:30.506Z,3.62
2022-09-22T12:31:06.716Z,4.87
2022-09-22T12:33:36.191Z,3.80
2022-09-22T12:36:05.077Z,3.92
2022-09-22T12:38:32.292Z,4.12
2022-09-22T12:41:02.996Z,4.57
2022-09-22T12:43:32.673Z,4.65
2022-09-22T12:46:04.764Z,5.32
2022-09-22T12:48:37.195Z,4.55
2022-09-22T12:51:26.413Z,5.22
2022-09-22T12:54:22.252Z,6.55
2022-09-22T12:57:08.487Z,5.35
2022-09-22T12:59:35.652Z,5.47
2022-09-22T13:02:11.223Z,4.87
2022-09-22T13:04:38.618Z,5.80
2022-09-22T13:07:35.709Z,5.60
2022-09-22T13:10:23.903Z,6.20
2022-09-22T13:13:12.184Z,5.28
2022-09-22T13:15:51.172Z,4.93
2022-09-22T13:18:27.639Z,5.60
2022-09-22T13:20:54.572Z,4.50
2022-09-22T13:23:21.586Z,6.30
2022-09-22T13:25:51.641Z,6.90
2022-09-22T13:28:21.451Z,6.05
2022-09-22T13:31:05.949Z,5.47
2022-09-22T13:33:35.341Z,5.40
2022-09-22T13:36:04.712Z,4.62
2022-09-22T13:38:36.269Z,4.80
2022-09-22T13:41:05.275Z,5.03
2022-09-22T13:43:37.407Z,4.87
2022-09-22T13:46:05.887Z,4.47
2022-09-22T13:48:36.828Z,4.65
2022-09-22T13:51:09.250Z,4.93
2022-09-22T13:53:37.512Z,4.55
2022-09-22T13:56:04.852Z,5.00
2022-09-22T13:58:40.702Z,6.20
2022-09-22T14:01:23.682Z,5.80
2022-09-22T14:03:52.127Z,9.27
2022-09-22T14:06:22.146Z,6.85
2022-09-22T14:08:50.672Z,6.07
2022-09-22T14:11:21.749Z,6.78
2022-09-22T14:13:54.702Z,5.32
2022-09-22T14:16:49.802Z,4.10
2022-09-22T14:19:23.878Z,4.87
2022-09-22T14:21:58.078Z,4.97
2022-09-22T14:24:26.535Z,4.53
2022-09-22T14:27:01.471Z,3.42
2022-09-22T14:29:33.140Z,4.12
2022-09-22T14:32:12.691Z,4.80
2022-09-22T14:34:41.097Z,6.10
2022-09-22T14:37:24.905Z,3.97
2022-09-22T14:39:53.714Z,4.07
2022-09-22T14:42:27.541Z,5.00
2022-09-22T14:45:06.289Z,3.80
2022-09-22T14:47:39.337Z,4.80
2022-09-22T14:50:18.925Z,5.55
2022-09-22T14:53:19.232Z,6.53
2022-09-22T14:55:53.170Z,8.02
2022-09-22T14:58:27.541Z,3.80
2022-09-22T15:01:17.192Z,5.82
2022-09-22T15:03:53.075Z,3.33
2022-09-22T15:06:19.769Z,3.28
2022-09-22T15:08:54.863Z,3.00
2022-09-22T15:11:48.962Z,4.72
2022-09-22T15:14:33.977Z,3.92
2022-09-22T15:17:20.603Z,3.97
2022-09-22T15:19:53.419Z,3.70
2022-09-22T15:22:20.173Z,3.50
2022-09-22T15:24:47.068Z,4.75
2022-09-22T15:27:17.727Z,5.93
2022-09-22T15:29:45.644Z,9.68
2022-09-22T15:32:13.225Z,5.25
2022-09-22T15:34:44.786Z,4.20
2022-09-22T15:39:45.273Z,3.50
2022-09-22T15:42:12.420Z,5.87
2022-09-22T15:44:39.179Z,3.67
2022-09-22T15:47:10.726Z,4.45
2022-09-22T15:52:04.863Z,5.40
2022-09-22T15:54:31.674Z,3.95
2022-09-22T15:56:59.893Z,5.70
2022-09-22T15:59:32.574Z,6.45
2022-09-22T16:02:00.588Z,5.15
2022-09-22T16:04:33.674Z,6.93
2022-09-22T16:07:08.379Z,5.57
2022-09-22T16:09:35.505Z,4.90
2022-09-22T16:12:03.303Z,6.00
2022-09-22T16:14:29.950Z,5.22
2022-09-22T16:16:56.837Z,7.25
2022-09-22T16:19:23.586Z,8.35
2022-09-22T16:21:52.839Z,7.93
2022-09-22T16:24:22.387Z,7.15
2022-09-22T16:26:49.387Z,7.43
2022-09-22T16:29:16.567Z,7.03
2022-09-22T16:31:43.495Z,10.32
2022-09-22T16:34:10.717Z,8.82
2022-09-22T16:36:37.521Z,9.45
2022-09-22T16:39:05.491Z,9.48
2022-09-22T16:41:34.375Z,9.05
2022-09-22T16:44:02.176Z,11.95
2022-09-22T16:46:30.652Z,10.95
2022-09-22T16:49:00.614Z,12.00
2022-09-22T16:51:28.071Z,12.77
2022-09-22T16:53:55.123Z,13.13
2022-09-22T16:56:24.735Z,10.13
2022-09-22T16:58:52.050Z,10.52
2022-09-22T17:01:20.189Z,10.55
2022-09-22T17:03:49.443Z,11.05
2022-09-22T17:06:19.302Z,11.95
2022-09-22T17:08:46.484Z,10.45
2022-09-22T17:11:14.373Z,9.63
2022-09-22T17:13:43.423Z,9.43
2022-09-22T17:16:30.271Z,9.55
2022-09-22T17:18:59.909Z,7.85
2022-09-22T17:21:30.158Z,7.35
2022-09-22T17:24:02.430Z,6.40
2022-09-22T17:26:32.875Z,8.32
2022-09-22T17:29:00.324Z,8.43
2022-09-22T17:31:31.157Z,7.03
2022-09-22T17:33:58.566Z,8.57
2022-09-22T17:36:26.613Z,6.25
2022-09-22T17:38:55.806Z,6.12
2022-09-22T17:41:25.509Z,8.32
2022-09-22T17:43:57.639Z,8.07
2022-09-22T17:46:26.294Z,7.72
2022-09-22T17:49:12.208Z,7.85
2022-09-22T17:52:03.087Z,8.85
2022-09-22T17:54:49.652Z,8.13
2022-09-22T17:57:25.340Z,7.47
2022-09-22T17:59:52.324Z,9.43
2022-09-22T18:02:20.567Z,7.18
2022-09-22T18:04:48.055Z,6.68
2022-09-22T18:07:17.879Z,6.75
2022-09-22T18:09:47.573Z,6.70
2022-09-22T18:12:20.062Z,8.00
2022-09-22T18:14:52.152Z,8.13
2022-09-22T18:17:22.518Z,8.27
2022-09-22T18:19:49.420Z,7.18
2022-09-22T18:22:21.061Z,7.60
2022-09-22T18:27:19.570Z,8.05
2022-09-22T18:29:50.013Z,8.15
2022-09-22T18:32:19.700Z,8.38
2022-09-22T18:34:46.755Z,9.60
2022-09-22T18:37:15.647Z,9.02
2022-09-22T18:39:45.537Z,7.95
2022-09-22T18:42:13.662Z,8.00
2022-09-22T18:44:41.487Z,9.23
2022-09-22T18:47:13.097Z,8.15
2022-09-22T18:49:40.785Z,7.37
2022-09-22T18:52:08.013Z,7.40
2022-09-22T18:54:35.358Z,6.78
2022-09-22T18:57:06.548Z,9.13
2022-09-22T18:59:33.362Z,6.87
2022-09-22T19:02:00.676Z,7.45
2022-09-22T19:04:27.490Z,8.18
2022-09-22T19:07:14.323Z,7.35
2022-09-22T19:09:42.143Z,7.90
2022-09-22T19:12:09.991Z,7.68
2022-09-22T19:14:39.274Z,6.90
2022-09-22T19:17:10.938Z,7.65
2022-09-22T19:19:42.255Z,6.70
2022-09-22T19:22:12.764Z,7.00
2022-09-22T19:24:40.340Z,7.07
2022-09-22T19:27:09.202Z,7.78
2022-09-22T19:29:36.434Z,6.47
2022-09-22T19:32:04.631Z,6.78
2022-09-22T19:34:31.425Z,7.18
2022-09-22T19:36:58.933Z,6.30
2022-09-22T19:39:26.642Z,9.55
2022-09-22T19:41:54.875Z,11.85
2022-09-22T19:44:23.333Z,10.65
2022-09-22T19:46:50.425Z,8.48
2022-09-22T19:49:17.348Z,6.65
2022-09-22T19:51:44.357Z,8.15
2022-09-22T19:54:11.646Z,6.57
2022-09-22T19:56:38.277Z,6.93
2022-09-22T19:59:09.098Z,7.78
2022-09-22T20:01:43.084Z,6.40
2022-09-22T20:04:14.200Z,7.95
2022-09-22T20:06:41.197Z,7.28
2022-09-22T20:09:08.007Z,6.75
2022-09-22T20:11:39.057Z,6.40
2022-09-22T20:14:22.901Z,6.45
2022-09-22T20:16:55.115Z,8.35
2022-09-22T20:21:51.511Z,6.32
2022-09-22T20:24:21.428Z,6.50
2022-09-22T20:26:48.352Z,10.77
2022-09-22T20:29:16.536Z,6.97
2022-09-22T20:31:43.728Z,8.18
2022-09-22T20:34:15.134Z,6.47
2022-09-22T20:36:43.404Z,7.57
2022-09-22T20:39:13.622Z,6.40
2022-09-22T20:41:41.788Z,7.87
2022-09-22T20:44:14.191Z,7.10
2022-09-22T20:46:42.421Z,7.90
2022-09-22T20:49:13.842Z,6.75
2022-09-22T20:51:43.401Z,6.72
2022-09-22T20:54:10.602Z,7.55
2022-09-22T20:56:41.969Z,6.53
2022-09-22T20:59:09.658Z,7.78
2022-09-22T21:01:36.972Z,6.62
2022-09-22T21:04:03.957Z,6.72
2022-09-22T21:06:31.113Z,5.87
2022-09-22T21:09:17.326Z,7.35
2022-09-22T21:11:44.196Z,7.20
2022-09-22T21:14:11.980Z,7.70
2022-09-22T21:16:39.532Z,7.47
2022-09-22T21:19:07.541Z,6.68
2022-09-22T21:21:38.710Z,7.22
2022-09-22T21:24:05.770Z,7.22
2022-09-22T21:26:33.243Z,26.15
2022-09-22T21:29:00.822Z,14.63
2022-09-22T21:31:28.129Z,8.05
2022-09-22T21:33:55.145Z,8.18
2022-09-22T21:36:24.117Z,11.02
2022-09-22T21:38:56.570Z,7.65
2022-09-22T21:41:27.337Z,8.07
2022-09-22T21:43:55.145Z,7.65
2022-09-22T21:46:25.067Z,7.25
2022-09-22T21:49:03.678Z,9.02
2022-09-22T21:51:36.311Z,8.10
2022-09-22T21:54:05.119Z,7.53
2022-09-22T21:56:33.692Z,7.80
2022-09-22T21:59:01.800Z,8.20
2022-09-22T22:01:32.045Z,8.13
2022-09-22T22:04:00.644Z,9.90
2022-09-22T22:06:30.064Z,8.00
2022-09-22T22:09:06.545Z,10.02
2022-09-22T22:11:39.215Z,10.63
2022-09-22T22:14:08.632Z,8.35
2022-09-22T22:16:44.378Z,7.85
2022-09-22T22:19:14.448Z,10.25
2022-09-22T22:21:43.079Z,7.18
2022-09-22T22:24:14.641Z,8.60
2022-09-22T22:26:42.397Z,8.82
2022-09-22T22:29:12.121Z,10.32
2022-09-22T22:31:39.678Z,8.43
2022-09-22T22:34:11.913Z,8.18
2022-09-22T22:39:06.109Z,8.27
2022-09-22T22:41:33.025Z,9.15
2022-09-22T22:44:01.813Z,8.82
2022-09-22T22:46:29.854Z,10.20
2022-09-22T22:48:57.579Z,9.90
2022-09-22T22:51:24.920Z,10.60
2022-09-22T22:53:55.595Z,9.20
2022-09-22T22:56:25.132Z,10.73
2022-09-22T22:58:53.252Z,10.35
2022-09-22T23:01:22.507Z,9.88
2022-09-22T23:03:57.739Z,10.52
2022-09-22T23:06:26.942Z,8.70
2022-09-22T23:08:54.437Z,11.07
2022-09-22T23:11:40.230Z,10.30
2022-09-22T23:14:11.281Z,10.88
2022-09-22T23:16:40.782Z,10.60
2022-09-22T23:19:10.606Z,9.90
2022-09-22T23:21:37.299Z,12.02
2022-09-22T23:24:05.298Z,10.73
2022-09-22T23:26:32.565Z,10.05
2022-09-22T23:28:59.527Z,10.88
2022-09-22T23:31:26.344Z,11.35
2022-09-22T23:33:54.074Z,10.88
2022-09-22T23:36:24.131Z,10.13
2022-09-22T23:38:55.612Z,11.73
2022-09-22T23:41:22.904Z,10.60
2022-09-22T23:43:49.976Z,11.25
2022-09-22T23:46:16.743Z,10.20
2022-09-22T23:48:43.737Z,10.32
2022-09-22T23:51:10.399Z,11.00
2022-09-22T23:53:37.666Z,11.52
2022-09-22T23:56:06.491Z,11.82
2022-09-22T23:58:33.916Z,10.90
